Ardenvoir, WA

10:40 AM PDT on September 16, 2014 (GMT -0700)
Entiat Valley | Change Station
CLOSE
Current Station
Personal Weather Station
Location: Entiat, WA
Elevation: 1050 ft
Nearby Weather Stations

Elev 1050 ft 47.70 °N, 120.33 °W | Updated 1 second ago

Clear
Clear
70.5 °F
Feels Like 77 °F
N
2.0
Wind Variable Wind from ESE
Gusts 3.0 mph

Today
High -- | Low -- °F
--% Chance of Precip.
Yesterday
High -- | Low -- °F
Precip. -- in
6:40 AM 7:11 PM
Last Quarter, 44% visible
Pressure 29.86 in
Visibility 10.0 miles
Clouds Clear
Heat Index 77 °F
Dew Point 46 °F
Humidity 41%
Rainfall 0.00 in
Snow Depth 0 in , 1 in , 0 in
UV out of 12
Pollen 2.90 out of 12
Air Quality Not available.
Flu Activity Not available.
METAR KEAT 161655Z AUTO 31004KT 10SM CLR 21/04 A2988 RMK AO2 SLP111 T02060039

More Conditions Fewer Conditions

Pressure 29.86 in
Visibility 10.0 miles
Clouds Clear
Heat Index 77 °F
Dew Point 46 °F
Humidity 41%
Rainfall 0.00 in
Snow Depth 0 in , 1 in , 0 in
UV out of 12
Pollen 2.90 out of 12
Air Quality Not available.
Flu Activity Not available.
METAR KEAT 161655Z AUTO 31004KT 10SM CLR 21/04 A2988 RMK AO2 SLP111 T02060039

More Conditions Fewer Conditions

10-Day Weather Forecast

Almanac

Astronomy

Sep. 16, 2014 Rise Set
Actual Time 6:40 AM PDT 7:11 PM PDT
Civil Twilight 6:09 AM PDT 7:42 PM PDT
Nautical Twilight 5:32 AM PDT 8:19 PM PDT
Astronomical Twilight 4:53 AM PDT 8:57 PM PDT
Moon No Moon Rise 2:57 PM PDT
Length of Visible Light 13h 33m
Length of Day
12h 31m
Tomorrow will be 3m 25s shorter.
Last Quarter, 44% of the Moon is Illuminated
Today
Last Quarter
Sep 24
New
Oct 1
First Quarter
Oct 8
Full
Oct 15
Last Quarter

Today's Extremes

State Highs State Lows

Community

WunderPhotos

Upload Photos

1,753,843 photos uploaded!

Nearby

Snow Depth

Station Depth Elevation
Alpine Meadows 0 in 3500 ft
Moses Mountain 1 in 5300 ft
Surprise Lakes 0 in 4250 ft
Touchet 0 in 5530 ft
Lyman Lake 0 in 5900 ft

Earthquake Activity

City Distance Mag. Time & Date
No recent earthquake activity has been reported nearby.
Minimum magnitude displayed is 2.5.

Coastal Water Temperatures

Place Temperature
No Stations Reporting

Nearby Weather Stations